KSTP/STP METAR and TAF weather

Enter ICAO airport designator
Station Type Date Time Source
KSTP METAR 2019/12/13 02:53 UTC NOAA

KSTP 130253Z 31003KT 10SM FEW017 OVC049 M08/M12 A3007 RMK AO2 SLP193 T10831122 58003


Station Type Date Time Source
KSTP Decoded METAR 2019/12/13 02:53 UTC NOAA

DOWNTOWN HOLMAN FIELD, MN, United States (KSTP) 44-56N 093-03W 219M
Dec 12, 2019 - 09:53 PM EST / 2019.12.13 0253 UTC
Wind: from the NW (310 degrees) at 3 MPH (3 KT):0
Visibility: 10 mile(s):0
Sky conditions: overcast
Temperature: 17.1 F (-8.3 C)
Dew Point: 10.0 F (-12.2 C)
Relative Humidity: 73%
Pressure (altimeter): 30.07 in. Hg (1018 hPa)
Pressure tendency: 0.01 inches (0.3 hPa) lower than three hours ago
ob: KSTP 130253Z 31003KT 10SM FEW017 OVC049 M08/M12 A3007 RMK AO2 SLP193 T10831122 58003
cycle: 3

Station Type Date Time Source
KSTP TAF 2018/02/05 20:57 UTC NOAA

TAF
AMD KSTP 051957Z 0520/0618 25007KT P6SM VCSH BKN020 OVC050
TEMPO 0520/0522 SCT020
FM052200 26006KT P6SM FEW020 BKN110
FM060100 31006KT P6SM FEW100
AMD NOT SKED

Example: see airport list